sensor_id;sensor_type;location;lat;lon;timestamp;P1;durP1;ratioP1;P2;durP2;ratioP2
39822;SDS011;25499;53.958;10.970;2023-04-22T07:24:35;14.50;;;7.43;;
39822;SDS011;25499;53.958;10.970;2023-04-22T07:27:02;9.55;;;6.90;;
39822;SDS011;25499;53.958;10.970;2023-04-22T07:29:29;10.68;;;6.97;;
39822;SDS011;25499;53.958;10.970;2023-04-22T07:31:56;9.82;;;6.70;;
39822;SDS011;25499;53.958;10.970;2023-04-22T07:34:23;9.63;;;7.50;;
39822;SDS011;25499;53.958;10.970;2023-04-22T07:36:51;10.38;;;7.15;;
39822;SDS011;25499;53.958;10.970;2023-04-22T07:39:18;10.35;;;6.63;;
39822;SDS011;25499;53.958;10.970;2023-04-22T07:41:46;13.10;;;7.28;;
39822;SDS011;25499;53.958;10.970;2023-04-22T07:44:13;10.77;;;7.05;;
39822;SDS011;25499;53.958;10.970;2023-04-22T07:46:42;11.45;;;7.43;;
39822;SDS011;25499;53.958;10.970;2023-04-22T07:49:09;10.18;;;7.07;;
39822;SDS011;25499;53.958;10.970;2023-04-22T07:51:38;7.65;;;6.32;;
39822;SDS011;25499;53.958;10.970;2023-04-22T07:54:04;12.05;;;6.90;;
39822;SDS011;25499;53.958;10.970;2023-04-22T07:56:31;13.88;;;6.75;;
39822;SDS011;25499;53.958;10.970;2023-04-22T07:58:59;11.38;;;7.05;;
39822;SDS011;25499;53.958;10.970;2023-04-22T08:01:26;10.07;;;6.90;;
39822;SDS011;25499;53.958;10.970;2023-04-22T08:03:53;14.77;;;7.30;;
39822;SDS011;25499;53.958;10.970;2023-04-22T08:06:20;12.43;;;7.38;;
39822;SDS011;25499;53.958;10.970;2023-04-22T08:08:46;9.20;;;6.93;;
39822;SDS011;25499;53.958;10.970;2023-04-22T08:11:13;9.63;;;6.80;;
39822;SDS011;25499;53.958;10.970;2023-04-22T08:13:40;11.82;;;6.50;;
39822;SDS011;25499;53.958;10.970;2023-04-22T08:16:08;5.82;;;4.70;;
39822;SDS011;25499;53.958;10.970;2023-04-22T08:18:35;8.73;;;6.10;;
39822;SDS011;25499;53.958;10.970;2023-04-22T08:21:02;6.35;;;5.00;;
39822;SDS011;25499;53.958;10.970;2023-04-22T08:23:29;13.00;;;6.15;;
39822;SDS011;25499;53.958;10.970;2023-04-22T08:25:56;7.53;;;6.40;;
39822;SDS011;25499;53.958;10.970;2023-04-22T08:28:23;10.50;;;6.90;;
39822;SDS011;25499;53.958;10.970;2023-04-22T08:30:50;12.25;;;7.00;;
39822;SDS011;25499;53.958;10.970;2023-04-22T08:33:18;9.45;;;6.20;;
39822;SDS011;25499;53.958;10.970;2023-04-22T08:35:46;7.78;;;4.90;;
39822;SDS011;25499;53.958;10.970;2023-04-22T08:38:13;11.68;;;6.38;;
39822;SDS011;25499;53.958;10.970;2023-04-22T08:40:40;7.72;;;4.80;;
39822;SDS011;25499;53.958;10.970;2023-04-22T08:43:07;9.13;;;6.72;;
39822;SDS011;25499;53.958;10.970;2023-04-22T08:45:34;10.75;;;6.38;;
39822;SDS011;25499;53.958;10.970;2023-04-22T08:48:04;10.77;;;7.13;;
39822;SDS011;25499;53.958;10.970;2023-04-22T08:50:34;10.95;;;6.53;;
39822;SDS011;25499;53.958;10.970;2023-04-22T08:53:02;6.95;;;4.72;;
39822;SDS011;25499;53.958;10.970;2023-04-22T08:55:29;9.02;;;6.55;;
39822;SDS011;25499;53.958;10.970;2023-04-22T08:57:57;9.82;;;6.82;;
39822;SDS011;25499;53.958;10.970;2023-04-22T09:00:25;10.23;;;6.47;;
39822;SDS011;25499;53.958;10.970;2023-04-22T09:02:52;10.63;;;6.15;;
39822;SDS011;25499;53.958;10.970;2023-04-22T09:05:21;6.45;;;4.75;;
39822;SDS011;25499;53.958;10.970;2023-04-22T09:07:52;4.90;;;4.40;;
39822;SDS011;25499;53.958;10.970;2023-04-22T09:10:19;10.85;;;6.30;;
39822;SDS011;25499;53.958;10.970;2023-04-22T09:12:46;9.98;;;5.80;;
39822;SDS011;25499;53.958;10.970;2023-04-22T09:15:14;12.73;;;6.22;;
39822;SDS011;25499;53.958;10.970;2023-04-22T09:17:41;9.25;;;5.68;;
39822;SDS011;25499;53.958;10.970;2023-04-22T09:20:07;7.72;;;6.00;;
39822;SDS011;25499;53.958;10.970;2023-04-22T09:22:37;12.35;;;5.95;;
39822;SDS011;25499;53.958;10.970;2023-04-22T09:25:13;8.05;;;5.50;;
39822;SDS011;25499;53.958;10.970;2023-04-22T09:27:41;12.10;;;6.07;;
39822;SDS011;25499;53.958;10.970;2023-04-22T09:30:10;8.52;;;5.57;;
39822;SDS011;25499;53.958;10.970;2023-04-22T09:32:38;8.88;;;4.50;;
39822;SDS011;25499;53.958;10.970;2023-04-22T09:35:05;8.63;;;5.22;;
39822;SDS011;25499;53.958;10.970;2023-04-22T09:37:32;7.70;;;5.53;;
39822;SDS011;25499;53.958;10.970;2023-04-22T09:39:59;8.02;;;5.80;;
39822;SDS011;25499;53.958;10.970;2023-04-22T09:42:27;8.73;;;5.80;;
39822;SDS011;25499;53.958;10.970;2023-04-22T09:44:54;9.23;;;5.45;;
39822;SDS011;25499;53.958;10.970;2023-04-22T09:47:21;5.22;;;3.85;;
39822;SDS011;25499;53.958;10.970;2023-04-22T09:49:48;8.90;;;4.85;;
39822;SDS011;25499;53.958;10.970;2023-04-22T09:52:21;10.25;;;5.28;;
39822;SDS011;25499;53.958;10.970;2023-04-22T09:54:52;5.15;;;3.92;;
39822;SDS011;25499;53.958;10.970;2023-04-22T09:57:19;9.30;;;5.35;;
39822;SDS011;25499;53.958;10.970;2023-04-22T09:59:50;8.60;;;5.28;;
39822;SDS011;25499;53.958;10.970;2023-04-22T10:02:17;8.88;;;5.40;;
39822;SDS011;25499;53.958;10.970;2023-04-22T10:04:44;9.48;;;5.10;;
39822;SDS011;25499;53.958;10.970;2023-04-22T10:07:11;9.43;;;5.38;;
39822;SDS011;25499;53.958;10.970;2023-04-22T10:09:39;11.15;;;5.22;;
39822;SDS011;25499;53.958;10.970;2023-04-22T10:12:06;10.18;;;5.30;;
39822;SDS011;25499;53.958;10.970;2023-04-22T10:14:33;7.68;;;5.25;;
39822;SDS011;25499;53.958;10.970;2023-04-22T10:17:02;9.48;;;5.68;;
39822;SDS011;25499;53.958;10.970;2023-04-22T10:19:29;5.45;;;4.82;;
39822;SDS011;25499;53.958;10.970;2023-04-22T10:22:00;7.78;;;4.70;;
39822;SDS011;25499;53.958;10.970;2023-04-22T10:24:33;13.55;;;5.10;;
39822;SDS011;25499;53.958;10.970;2023-04-22T10:27:02;7.82;;;4.97;;
39822;SDS011;25499;53.958;10.970;2023-04-22T10:32:04;7.68;;;3.83;;
39822;SDS011;25499;53.958;10.970;2023-04-22T10:34:48;7.10;;;4.00;;
39822;SDS011;25499;53.958;10.970;2023-04-22T10:37:16;9.00;;;4.47;;
39822;SDS011;25499;53.958;10.970;2023-04-22T10:42:31;7.13;;;4.40;;
39822;SDS011;25499;53.958;10.970;2023-04-22T10:44:59;6.35;;;4.13;;
39822;SDS011;25499;53.958;10.970;2023-04-22T10:47:29;7.43;;;4.45;;
39822;SDS011;25499;53.958;10.970;2023-04-22T10:50:10;6.93;;;4.40;;
39822;SDS011;25499;53.958;10.970;2023-04-22T10:52:44;8.32;;;4.28;;
39822;SDS011;25499;53.958;10.970;2023-04-22T10:55:12;6.68;;;3.80;;
39822;SDS011;25499;53.958;10.970;2023-04-22T10:57:39;6.82;;;3.92;;
39822;SDS011;25499;53.958;10.970;2023-04-22T11:00:20;7.07;;;4.32;;
39822;SDS011;25499;53.958;10.970;2023-04-22T11:03:09;7.53;;;3.92;;
39822;SDS011;25499;53.958;10.970;2023-04-22T11:05:38;6.03;;;3.83;;
39822;SDS011;25499;53.958;10.970;2023-04-22T11:08:06;7.25;;;4.07;;
39822;SDS011;25499;53.958;10.970;2023-04-22T11:10:38;6.88;;;3.80;;
39822;SDS011;25499;53.958;10.970;2023-04-22T11:13:07;8.18;;;3.10;;
39822;SDS011;25499;53.958;10.970;2023-04-22T11:15:37;6.30;;;3.83;;
39822;SDS011;25499;53.958;10.970;2023-04-22T11:18:13;7.78;;;3.97;;
39822;SDS011;25499;53.958;10.970;2023-04-22T11:20:44;6.60;;;4.47;;
39822;SDS011;25499;53.958;10.970;2023-04-22T11:23:13;4.10;;;3.00;;
39822;SDS011;25499;53.958;10.970;2023-04-22T11:25:43;5.18;;;3.65;;
39822;SDS011;25499;53.958;10.970;2023-04-22T11:28:09;7.88;;;3.70;;
39822;SDS011;25499;53.958;10.970;2023-04-22T11:30:36;6.03;;;3.78;;
39822;SDS011;25499;53.958;10.970;2023-04-22T11:33:03;8.10;;;3.95;;
39822;SDS011;25499;53.958;10.970;2023-04-22T11:35:32;6.32;;;3.83;;
39822;SDS011;25499;53.958;10.970;2023-04-22T11:38:00;9.23;;;3.80;;
39822;SDS011;25499;53.958;10.970;2023-04-22T11:40:28;5.47;;;3.20;;
39822;SDS011;25499;53.958;10.970;2023-04-22T11:42:58;5.70;;;3.35;;
39822;SDS011;25499;53.958;10.970;2023-04-22T11:45:27;4.70;;;2.35;;
39822;SDS011;25499;53.958;10.970;2023-04-22T11:47:55;6.40;;;3.47;;
39822;SDS011;25499;53.958;10.970;2023-04-22T11:50:23;3.83;;;2.80;;
39822;SDS011;25499;53.958;10.970;2023-04-22T11:52:59;6.10;;;3.58;;
39822;SDS011;25499;53.958;10.970;2023-04-22T11:55:28;6.05;;;3.42;;
39822;SDS011;25499;53.958;10.970;2023-04-22T11:57:59;6.57;;;2.58;;
39822;SDS011;25499;53.958;10.970;2023-04-22T12:00:28;7.75;;;3.60;;
39822;SDS011;25499;53.958;10.970;2023-04-22T12:03:00;5.78;;;2.42;;
39822;SDS011;25499;53.958;10.970;2023-04-22T12:05:36;6.10;;;3.13;;
39822;SDS011;25499;53.958;10.970;2023-04-22T12:10:38;5.28;;;3.53;;
39822;SDS011;25499;53.958;10.970;2023-04-22T12:13:07;3.55;;;3.03;;
39822;SDS011;25499;53.958;10.970;2023-04-22T12:18:08;8.38;;;3.60;;
39822;SDS011;25499;53.958;10.970;2023-04-22T12:20:36;6.32;;;4.15;;
39822;SDS011;25499;53.958;10.970;2023-04-22T12:23:04;6.55;;;3.03;;
39822;SDS011;25499;53.958;10.970;2023-04-22T12:25:32;9.70;;;3.50;;
39822;SDS011;25499;53.958;10.970;2023-04-22T12:27:59;5.95;;;3.13;;
39822;SDS011;25499;53.958;10.970;2023-04-22T12:30:26;13.05;;;3.40;;
39822;SDS011;25499;53.958;10.970;2023-04-22T12:32:54;3.85;;;3.13;;
39822;SDS011;25499;53.958;10.970;2023-04-22T12:35:21;5.50;;;3.20;;
39822;SDS011;25499;53.958;10.970;2023-04-22T12:37:48;5.07;;;3.50;;
39822;SDS011;25499;53.958;10.970;2023-04-22T12:40:15;7.97;;;3.35;;
39822;SDS011;25499;53.958;10.970;2023-04-22T12:42:46;5.75;;;2.65;;
39822;SDS011;25499;53.958;10.970;2023-04-22T12:45:13;4.35;;;2.63;;
39822;SDS011;25499;53.958;10.970;2023-04-22T12:47:41;3.97;;;2.80;;
39822;SDS011;25499;53.958;10.970;2023-04-22T12:50:09;4.93;;;3.00;;
39822;SDS011;25499;53.958;10.970;2023-04-22T12:52:37;5.03;;;2.90;;
39822;SDS011;25499;53.958;10.970;2023-04-22T12:55:03;4.22;;;2.78;;
39822;SDS011;25499;53.958;10.970;2023-04-22T12:57:31;7.72;;;2.50;;
39822;SDS011;25499;53.958;10.970;2023-04-22T12:59:59;4.55;;;2.80;;
39822;SDS011;25499;53.958;10.970;2023-04-22T13:02:26;3.25;;;2.95;;
39822;SDS011;25499;53.958;10.970;2023-04-22T13:04:53;5.13;;;3.35;;
39822;SDS011;25499;53.958;10.970;2023-04-22T13:07:20;3.97;;;3.05;;
39822;SDS011;25499;53.958;10.970;2023-04-22T13:09:48;3.78;;;2.25;;
39822;SDS011;25499;53.958;10.970;2023-04-22T13:12:15;5.45;;;3.03;;
39822;SDS011;25499;53.958;10.970;2023-04-22T13:14:42;4.10;;;3.28;;
39822;SDS011;25499;53.958;10.970;2023-04-22T13:17:10;4.68;;;2.20;;
39822;SDS011;25499;53.958;10.970;2023-04-22T13:19:37;5.03;;;2.53;;
39822;SDS011;25499;53.958;10.970;2023-04-22T13:22:03;3.78;;;2.72;;
39822;SDS011;25499;53.958;10.970;2023-04-22T13:24:30;2.25;;;2.00;;
39822;SDS011;25499;53.958;10.970;2023-04-22T13:26:57;4.80;;;2.85;;
39822;SDS011;25499;53.958;10.970;2023-04-22T13:29:24;2.47;;;2.03;;
39822;SDS011;25499;53.958;10.970;2023-04-22T13:31:59;4.90;;;2.85;;
39822;SDS011;25499;53.958;10.970;2023-04-22T13:34:28;4.30;;;3.10;;
39822;SDS011;25499;53.958;10.970;2023-04-22T13:36:55;4.47;;;2.90;;
39822;SDS011;25499;53.958;10.970;2023-04-22T13:39:22;7.40;;;3.20;;
39822;SDS011;25499;53.958;10.970;2023-04-22T13:41:49;4.88;;;2.72;;
39822;SDS011;25499;53.958;10.970;2023-04-22T13:44:17;4.57;;;2.97;;
39822;SDS011;25499;53.958;10.970;2023-04-22T13:46:43;4.93;;;3.05;;
39822;SDS011;25499;53.958;10.970;2023-04-22T13:49:10;4.00;;;2.78;;
39822;SDS011;25499;53.958;10.970;2023-04-22T13:51:38;2.97;;;2.03;;
39822;SDS011;25499;53.958;10.970;2023-04-22T13:54:06;3.78;;;2.88;;
39822;SDS011;25499;53.958;10.970;2023-04-22T13:56:32;6.15;;;3.20;;
39822;SDS011;25499;53.958;10.970;2023-04-22T13:58:59;3.83;;;3.05;;
39822;SDS011;25499;53.958;10.970;2023-04-22T14:01:26;4.25;;;3.30;;
39822;SDS011;25499;53.958;10.970;2023-04-22T14:03:54;7.05;;;3.40;;
39822;SDS011;25499;53.958;10.970;2023-04-22T14:06:21;7.72;;;3.35;;
39822;SDS011;25499;53.958;10.970;2023-04-22T14:08:55;4.40;;;2.40;;
39822;SDS011;25499;53.958;10.970;2023-04-22T14:11:22;4.20;;;3.05;;
39822;SDS011;25499;53.958;10.970;2023-04-22T14:13:49;4.82;;;3.50;;
39822;SDS011;25499;53.958;10.970;2023-04-22T14:16:16;5.25;;;3.10;;
39822;SDS011;25499;53.958;10.970;2023-04-22T14:18:44;4.03;;;3.20;;
39822;SDS011;25499;53.958;10.970;2023-04-22T14:21:11;4.63;;;3.20;;
39822;SDS011;25499;53.958;10.970;2023-04-22T14:23:38;5.75;;;3.40;;
39822;SDS011;25499;53.958;10.970;2023-04-22T14:26:07;4.78;;;2.95;;
39822;SDS011;25499;53.958;10.970;2023-04-22T14:28:36;9.10;;;2.22;;
39822;SDS011;25499;53.958;10.970;2023-04-22T14:31:04;5.53;;;3.15;;
39822;SDS011;25499;53.958;10.970;2023-04-22T14:33:32;7.43;;;3.30;;
39822;SDS011;25499;53.958;10.970;2023-04-22T14:35:59;4.43;;;2.33;;
39822;SDS011;25499;53.958;10.970;2023-04-22T14:38:26;6.22;;;3.20;;
39822;SDS011;25499;53.958;10.970;2023-04-22T14:40:53;4.60;;;3.53;;
39822;SDS011;25499;53.958;10.970;2023-04-22T14:43:24;4.72;;;3.28;;
39822;SDS011;25499;53.958;10.970;2023-04-22T14:45:50;2.83;;;2.22;;
39822;SDS011;25499;53.958;10.970;2023-04-22T14:48:17;5.90;;;3.40;;
39822;SDS011;25499;53.958;10.970;2023-04-22T14:50:44;7.35;;;3.25;;
39822;SDS011;25499;53.958;10.970;2023-04-22T14:53:11;6.13;;;3.20;;
39822;SDS011;25499;53.958;10.970;2023-04-22T14:55:38;4.22;;;3.28;;
39822;SDS011;25499;53.958;10.970;2023-04-22T14:58:05;6.97;;;3.25;;
39822;SDS011;25499;53.958;10.970;2023-04-22T15:00:33;6.28;;;3.47;;
39822;SDS011;25499;53.958;10.970;2023-04-22T15:02:59;3.92;;;3.35;;
39822;SDS011;25499;53.958;10.970;2023-04-22T15:05:28;4.60;;;3.55;;
39822;SDS011;25499;53.958;10.970;2023-04-22T15:07:55;7.18;;;4.25;;
39822;SDS011;25499;53.958;10.970;2023-04-22T15:10:23;5.47;;;3.38;;
39822;SDS011;25499;53.958;10.970;2023-04-22T15:12:50;4.00;;;3.30;;
39822;SDS011;25499;53.958;10.970;2023-04-22T15:15:16;4.60;;;3.95;;
39822;SDS011;25499;53.958;10.970;2023-04-22T15:17:46;3.25;;;2.95;;
39822;SDS011;25499;53.958;10.970;2023-04-22T15:20:13;4.07;;;2.10;;
39822;SDS011;25499;53.958;10.970;2023-04-22T15:22:40;4.70;;;2.83;;
39822;SDS011;25499;53.958;10.970;2023-04-22T15:27:39;4.18;;;2.70;;
39822;SDS011;25499;53.958;10.970;2023-04-22T15:30:06;3.65;;;2.00;;
39822;SDS011;25499;53.958;10.970;2023-04-22T15:32:35;4.88;;;3.10;;
39822;SDS011;25499;53.958;10.970;2023-04-22T15:35:05;5.43;;;2.72;;
39822;SDS011;25499;53.958;10.970;2023-04-22T15:37:33;3.85;;;2.05;;
39822;SDS011;25499;53.958;10.970;2023-04-22T15:39:59;3.47;;;2.40;;
39822;SDS011;25499;53.958;10.970;2023-04-22T15:42:26;3.40;;;2.75;;
39822;SDS011;25499;53.958;10.970;2023-04-22T15:44:53;4.03;;;3.25;;
39822;SDS011;25499;53.958;10.970;2023-04-22T15:47:20;3.35;;;2.58;;
39822;SDS011;25499;53.958;10.970;2023-04-22T15:49:49;3.47;;;2.78;;
39822;SDS011;25499;53.958;10.970;2023-04-22T15:52:17;4.78;;;2.90;;
39822;SDS011;25499;53.958;10.970;2023-04-22T15:54:44;4.55;;;2.88;;
39822;SDS011;25499;53.958;10.970;2023-04-22T15:57:11;4.10;;;2.60;;
39822;SDS011;25499;53.958;10.970;2023-04-22T15:59:38;7.88;;;2.70;;
39822;SDS011;25499;53.958;10.970;2023-04-22T16:02:04;4.93;;;2.95;;
39822;SDS011;25499;53.958;10.970;2023-04-22T16:04:32;3.42;;;2.60;;
39822;SDS011;25499;53.958;10.970;2023-04-22T16:07:00;3.95;;;2.63;;
39822;SDS011;25499;53.958;10.970;2023-04-22T16:09:28;4.13;;;2.65;;
39822;SDS011;25499;53.958;10.970;2023-04-22T16:11:55;5.97;;;2.75;;
39822;SDS011;25499;53.958;10.970;2023-04-22T16:14:21;5.78;;;3.08;;
39822;SDS011;25499;53.958;10.970;2023-04-22T16:16:48;5.40;;;2.63;;
39822;SDS011;25499;53.958;10.970;2023-04-22T16:19:15;3.70;;;2.60;;
39822;SDS011;25499;53.958;10.970;2023-04-22T16:21:42;4.43;;;2.03;;
39822;SDS011;25499;53.958;10.970;2023-04-22T16:24:10;5.28;;;2.72;;
39822;SDS011;25499;53.958;10.970;2023-04-22T16:26:41;4.10;;;2.70;;
39822;SDS011;25499;53.958;10.970;2023-04-22T16:29:08;2.67;;;1.88;;
39822;SDS011;25499;53.958;10.970;2023-04-22T16:31:36;6.53;;;2.72;;
39822;SDS011;25499;53.958;10.970;2023-04-22T16:34:03;3.28;;;2.85;;
39822;SDS011;25499;53.958;10.970;2023-04-22T16:36:33;4.40;;;1.90;;
39822;SDS011;25499;53.958;10.970;2023-04-22T16:39:00;5.82;;;2.00;;
39822;SDS011;25499;53.958;10.970;2023-04-22T16:41:29;6.32;;;2.50;;
39822;SDS011;25499;53.958;10.970;2023-04-22T16:43:57;4.22;;;2.45;;
39822;SDS011;25499;53.958;10.970;2023-04-22T16:46:26;2.42;;;1.98;;
39822;SDS011;25499;53.958;10.970;2023-04-22T16:48:53;4.13;;;2.80;;
39822;SDS011;25499;53.958;10.970;2023-04-22T16:51:21;4.43;;;1.90;;
39822;SDS011;25499;53.958;10.970;2023-04-22T16:53:47;5.13;;;2.60;;
39822;SDS011;25499;53.958;10.970;2023-04-22T16:56:14;6.05;;;2.40;;
39822;SDS011;25499;53.958;10.970;2023-04-22T16:58:42;5.72;;;3.17;;
39822;SDS011;25499;53.958;10.970;2023-04-22T17:01:10;6.10;;;3.08;;
39822;SDS011;25499;53.958;10.970;2023-04-22T17:03:36;3.28;;;2.97;;
39822;SDS011;25499;53.958;10.970;2023-04-22T17:06:03;4.15;;;2.00;;
39822;SDS011;25499;53.958;10.970;2023-04-22T17:08:30;6.88;;;2.70;;
39822;SDS011;25499;53.958;10.970;2023-04-22T17:10:57;5.70;;;1.90;;
39822;SDS011;25499;53.958;10.970;2023-04-22T17:13:24;6.07;;;2.80;;
39822;SDS011;25499;53.958;10.970;2023-04-22T17:15:50;3.33;;;2.67;;
39822;SDS011;25499;53.958;10.970;2023-04-22T17:18:20;4.68;;;2.90;;
39822;SDS011;25499;53.958;10.970;2023-04-22T17:20:46;4.72;;;2.80;;
39822;SDS011;25499;53.958;10.970;2023-04-22T17:23:13;5.97;;;2.78;;
39822;SDS011;25499;53.958;10.970;2023-04-22T17:25:40;6.80;;;3.03;;
39822;SDS011;25499;53.958;10.970;2023-04-22T17:28:07;3.30;;;2.10;;
39822;SDS011;25499;53.958;10.970;2023-04-22T17:30:35;7.63;;;3.58;;
39822;SDS011;25499;53.958;10.970;2023-04-22T17:33:02;3.83;;;1.92;;
39822;SDS011;25499;53.958;10.970;2023-04-22T17:35:31;4.30;;;2.55;;
39822;SDS011;25499;53.958;10.970;2023-04-22T17:37:58;3.28;;;1.90;;
39822;SDS011;25499;53.958;10.970;2023-04-22T17:40:25;8.23;;;3.03;;
39822;SDS011;25499;53.958;10.970;2023-04-22T17:42:52;4.75;;;2.92;;
39822;SDS011;25499;53.958;10.970;2023-04-22T17:45:19;6.55;;;2.83;;
39822;SDS011;25499;53.958;10.970;2023-04-22T17:47:45;7.05;;;3.10;;
39822;SDS011;25499;53.958;10.970;2023-04-22T17:50:14;4.15;;;2.95;;
39822;SDS011;25499;53.958;10.970;2023-04-22T17:52:43;5.72;;;3.00;;
39822;SDS011;25499;53.958;10.970;2023-04-22T17:57:41;4.35;;;2.90;;
39822;SDS011;25499;53.958;10.970;2023-04-22T18:00:08;3.22;;;2.63;;
39822;SDS011;25499;53.958;10.970;2023-04-22T18:02:36;4.35;;;2.90;;
39822;SDS011;25499;53.958;10.970;2023-04-22T18:05:03;8.27;;;3.03;;
39822;SDS011;25499;53.958;10.970;2023-04-22T18:07:31;5.93;;;3.45;;
39822;SDS011;25499;53.958;10.970;2023-04-22T18:09:59;3.33;;;3.03;;
39822;SDS011;25499;53.958;10.970;2023-04-22T18:12:26;4.72;;;2.38;;
39822;SDS011;25499;53.958;10.970;2023-04-22T18:14:54;5.47;;;3.35;;
39822;SDS011;25499;53.958;10.970;2023-04-22T18:17:22;7.53;;;3.40;;
39822;SDS011;25499;53.958;10.970;2023-04-22T18:19:49;5.30;;;3.20;;
39822;SDS011;25499;53.958;10.970;2023-04-22T18:22:17;5.68;;;3.30;;
39822;SDS011;25499;53.958;10.970;2023-04-22T18:24:44;4.07;;;2.13;;
39822;SDS011;25499;53.958;10.970;2023-04-22T18:27:12;5.90;;;3.20;;
39822;SDS011;25499;53.958;10.970;2023-04-22T18:29:39;6.95;;;3.15;;
39822;SDS011;25499;53.958;10.970;2023-04-22T18:32:06;6.15;;;3.05;;
39822;SDS011;25499;53.958;10.970;2023-04-22T18:34:32;3.40;;;3.00;;
39822;SDS011;25499;53.958;10.970;2023-04-22T18:36:59;5.43;;;2.20;;
39822;SDS011;25499;53.958;10.970;2023-04-22T18:39:26;2.47;;;2.22;;
39822;SDS011;25499;53.958;10.970;2023-04-22T18:41:54;4.72;;;3.60;;
39822;SDS011;25499;53.958;10.970;2023-04-22T18:44:22;5.18;;;2.33;;
39822;SDS011;25499;53.958;10.970;2023-04-22T18:46:49;5.22;;;3.35;;
39822;SDS011;25499;53.958;10.970;2023-04-22T18:49:18;7.30;;;2.50;;
39822;SDS011;25499;53.958;10.970;2023-04-22T18:51:45;6.88;;;3.55;;
39822;SDS011;25499;53.958;10.970;2023-04-22T18:54:13;5.43;;;2.80;;
39822;SDS011;25499;53.958;10.970;2023-04-22T18:56:40;7.65;;;4.00;;
39822;SDS011;25499;53.958;10.970;2023-04-22T18:59:07;3.92;;;2.47;;
39822;SDS011;25499;53.958;10.970;2023-04-22T19:01:35;9.05;;;3.58;;
39822;SDS011;25499;53.958;10.970;2023-04-22T19:04:02;8.55;;;3.90;;
39822;SDS011;25499;53.958;10.970;2023-04-22T19:06:28;3.28;;;2.78;;
39822;SDS011;25499;53.958;10.970;2023-04-22T19:08:56;4.93;;;4.10;;
39822;SDS011;25499;53.958;10.970;2023-04-22T19:11:23;5.70;;;2.78;;
39822;SDS011;25499;53.958;10.970;2023-04-22T19:13:51;5.40;;;4.30;;
39822;SDS011;25499;53.958;10.970;2023-04-22T19:16:17;7.25;;;4.32;;
39822;SDS011;25499;53.958;10.970;2023-04-22T19:18:45;6.28;;;4.28;;
39822;SDS011;25499;53.958;10.970;2023-04-22T19:21:13;8.50;;;5.10;;
39822;SDS011;25499;53.958;10.970;2023-04-22T19:23:47;7.82;;;4.00;;
39822;SDS011;25499;53.958;10.970;2023-04-22T19:26:16;7.65;;;4.60;;
39822;SDS011;25499;53.958;10.970;2023-04-22T19:28:43;8.13;;;4.57;;
39822;SDS011;25499;53.958;10.970;2023-04-22T19:31:12;10.50;;;4.82;;
39822;SDS011;25499;53.958;10.970;2023-04-22T19:33:40;9.68;;;4.35;;
39822;SDS011;25499;53.958;10.970;2023-04-22T19:36:08;6.68;;;3.92;;
39822;SDS011;25499;53.958;10.970;2023-04-22T19:38:35;7.53;;;4.45;;
39822;SDS011;25499;53.958;10.970;2023-04-22T19:41:02;4.68;;;3.80;;
39822;SDS011;25499;53.958;10.970;2023-04-22T19:43:29;10.18;;;4.53;;
39822;SDS011;25499;53.958;10.970;2023-04-22T19:45:55;6.55;;;4.15;;
39822;SDS011;25499;53.958;10.970;2023-04-22T19:48:22;5.80;;;4.20;;
39822;SDS011;25499;53.958;10.970;2023-04-22T19:50:49;5.65;;;3.15;;
39822;SDS011;25499;53.958;10.970;2023-04-22T19:53:18;5.63;;;4.28;;
39822;SDS011;25499;53.958;10.970;2023-04-22T19:55:53;6.95;;;3.42;;
39822;SDS011;25499;53.958;10.970;2023-04-22T19:58:20;6.93;;;4.43;;
39822;SDS011;25499;53.958;10.970;2023-04-22T20:00:48;8.27;;;4.30;;
39822;SDS011;25499;53.958;10.970;2023-04-22T20:03:15;7.70;;;4.72;;
39822;SDS011;25499;53.958;10.970;2023-04-22T20:05:42;8.60;;;4.20;;
